Time;durP1;ratioP1;P1;durP2;ratioP2;P2;SDS_P1;SDS_P2;PMS_P1;PMS_P2;Temp;Humidity;BMP_temperature;BMP_pressure;BME280_temperature;BME280_humidity;BME280_pressure;Samples;Min_cycle;Max_cycle;Signal;HPM_P1;HPM_P2
2022/04/04 00:00:58;;;;;;;8.40;5.03;;;;;;;-1.57;86.93;98794.78;1732930;82;21075;-65
2022/04/04 00:03:26;;;;;;;8.73;4.92;;;;;;;-1.59;86.83;98800.95;1726989;82;21092;-64
2022/04/04 00:05:53;;;;;;;9.85;4.90;;;;;;;-1.59;86.64;98804.99;1728043;82;20941;-64
2022/04/04 00:08:21;;;;;;;8.08;5.35;;;;;;;-1.62;86.72;98806.03;1737285;82;20936;-64
2022/04/04 00:10:48;;;;;;;9.28;5.20;;;;;;;-1.65;86.80;98810.05;1726973;82;21219;-64
2022/04/04 00:13:16;;;;;;;8.75;4.87;;;;;;;-1.68;86.99;98810.02;1730459;82;21475;-63
2022/04/04 00:15:43;;;;;;;7.97;4.87;;;;;;;-1.70;87.08;98815.38;1736004;82;21043;-64
2022/04/04 00:18:11;;;;;;;8.60;5.10;;;;;;;-1.73;87.34;98811.84;1721076;82;20857;-63
2022/04/04 00:20:41;;;;;;;9.33;5.15;;;;;;;-1.76;87.89;98813.73;1733188;82;20888;-63
2022/04/04 00:23:12;;;;;;;10.10;5.10;;;;;;;-1.79;87.77;98811.02;1732139;82;21114;-63
2022/04/04 00:25:41;;;;;;;10.08;4.92;;;;;;;-1.82;87.89;98811.52;1735039;82;20868;-63
2022/04/04 00:28:10;;;;;;;9.40;4.85;;;;;;;-1.84;87.77;98814.18;1721039;81;21047;-63
2022/04/04 00:30:43;;;;;;;11.73;5.37;;;;;;;-1.87;87.99;98811.46;1716063;82;21529;-63
2022/04/04 00:33:09;;;;;;;6.75;4.17;;;;;;;-1.88;88.81;98821.13;1725177;81;21077;-65
2022/04/04 00:35:37;;;;;;;11.43;4.95;;;;;;;-1.89;88.68;98826.23;1731128;82;21127;-65
2022/04/04 00:38:06;;;;;;;10.65;4.92;;;;;;;-1.92;88.66;98825.39;1730437;82;20988;-63
2022/04/04 00:40:33;;;;;;;10.88;5.90;;;;;;;-1.96;88.49;98827.77;1734056;82;20897;-63
2022/04/04 00:43:00;;;;;;;11.53;5.45;;;;;;;-1.97;88.95;98827.48;1734358;82;20928;-63
2022/04/04 00:45:27;;;;;;;9.30;5.40;;;;;;;-1.96;88.88;98830.98;1726011;82;21389;-63
2022/04/04 00:47:53;;;;;;;8.50;5.75;;;;;;;-1.97;88.58;98833.40;1730770;82;22118;-63
2022/04/04 00:50:22;;;;;;;10.43;5.08;;;;;;;-1.99;88.58;98839.03;1726927;82;20855;-63
2022/04/04 00:52:51;;;;;;;11.08;5.90;;;;;;;-2.00;88.71;98832.84;1722844;82;20931;-63
2022/04/04 00:55:18;;;;;;;8.10;5.00;;;;;;;-2.00;88.86;98833.38;1735350;82;21009;-62
2022/04/04 00:57:45;;;;;;;9.30;5.45;;;;;;;-2.03;88.49;98840.59;1721812;82;21002;-62
2022/04/04 01:00:14;;;;;;;10.45;5.55;;;;;;;-2.04;88.30;98841.13;1728995;82;21119;-63
2022/04/04 01:02:41;;;;;;;9.68;5.70;;;;;;;-2.06;88.88;98837.88;1726982;82;21043;-65
2022/04/04 01:05:10;;;;;;;10.70;5.75;;;;;;;-2.06;88.97;98839.22;1726179;82;20893;-65
2022/04/04 01:07:38;;;;;;;10.80;6.17;;;;;;;-2.08;88.55;98841.34;1734122;82;20908;-63
2022/04/04 01:10:08;;;;;;;10.43;6.22;;;;;;;-2.10;88.50;98840.78;1722237;82;21593;-63
2022/04/04 01:12:37;;;;;;;11.33;6.62;;;;;;;-2.14;88.50;98839.66;1724984;81;21077;-63
2022/04/04 01:15:06;;;;;;;9.63;6.42;;;;;;;-2.14;89.60;98849.07;1724609;82;20974;-63
2022/04/04 01:17:34;;;;;;;9.60;5.83;;;;;;;-2.15;88.86;98848.79;1723661;82;20931;-62
2022/04/04 01:20:01;;;;;;;9.30;5.40;;;;;;;-2.17;88.65;98854.95;1731836;82;20935;-67
2022/04/04 01:22:30;;;;;;;13.53;6.37;;;;;;;-2.17;88.69;98847.41;1725481;82;20910;-63
2022/04/04 01:24:59;;;;;;;11.38;6.60;;;;;;;-2.18;88.81;98843.09;1728501;82;21514;-65
2022/04/04 01:27:25;;;;;;;12.53;6.58;;;;;;;-2.20;88.75;98850.06;1726962;82;21008;-68
2022/04/04 01:29:52;;;;;;;12.78;7.00;;;;;;;-2.23;88.51;98849.22;1717370;82;21006;-63
2022/04/04 01:32:19;;;;;;;15.83;6.75;;;;;;;-2.24;88.45;98848.94;1717677;82;20947;-63
2022/04/04 01:34:48;;;;;;;13.80;6.00;;;;;;;-2.25;88.70;98854.03;1730771;82;20964;-63
2022/04/04 01:37:15;;;;;;;14.43;6.20;;;;;;;-2.27;88.18;98848.09;1732449;82;21259;-64
2022/04/04 01:39:41;;;;;;;21.12;6.25;;;;;;;-2.28;88.26;98847.81;1719670;82;20998;-63
2022/04/04 01:42:09;;;;;;;10.80;6.17;;;;;;;-2.30;88.12;98855.31;1735704;82;20885;-63
2022/04/04 01:44:35;;;;;;;15.20;6.08;;;;;;;-2.31;88.09;98865.00;1724137;82;21033;-64
2022/04/04 01:47:06;;;;;;;10.13;6.25;;;;;;;-2.34;88.09;98857.72;1732427;82;21542;-63
2022/04/04 01:49:33;;;;;;;13.83;5.95;;;;;;;-2.35;88.07;98865.50;1727710;82;21235;-64
2022/04/04 01:52:00;;;;;;;8.55;4.97;;;;;;;-2.37;87.84;98864.12;1719320;82;21405;-63
2022/04/04 01:54:27;;;;;;;11.65;5.87;;;;;;;-2.39;87.88;98863.55;1733233;82;20940;-62
2022/04/04 01:56:55;;;;;;;11.90;5.95;;;;;;;-2.39;88.02;98866.24;1722907;82;21000;-62
2022/04/04 01:59:21;;;;;;;13.95;6.53;;;;;;;-2.41;87.79;98869.70;1723458;82;21438;-63
2022/04/04 02:01:51;;;;;;;11.73;6.10;;;;;;;-2.42;87.39;98869.42;1734478;82;21436;-63
2022/04/04 02:04:18;;;;;;;9.30;5.58;;;;;;;-2.44;87.34;98875.05;1719096;82;20855;-63
2022/04/04 02:06:47;;;;;;;11.18;6.33;;;;;;;-2.46;88.12;98878.52;1723965;82;20999;-63
2022/04/04 02:09:16;;;;;;;9.28;5.53;;;;;;;-2.47;87.62;98879.58;1726335;82;20975;-63
2022/04/04 02:11:45;;;;;;;11.08;6.05;;;;;;;-2.47;87.34;98881.45;1732427;82;20939;-63
2022/04/04 02:14:12;;;;;;;9.58;6.08;;;;;;;-2.49;87.20;98886.25;1727850;82;21225;-63
2022/04/04 02:16:45;;;;;;;17.90;6.62;;;;;;;-2.51;87.46;98885.16;1716347;82;20895;-67
2022/04/04 02:19:12;;;;;;;10.90;6.05;;;;;;;-2.51;87.23;98889.72;1729467;82;21495;-67
2022/04/04 02:21:39;;;;;;;10.30;6.60;;;;;;;-2.53;86.98;98879.22;1731508;82;21026;-67
2022/04/04 02:24:07;;;;;;;9.93;5.45;;;;;;;-2.53;86.84;98894.00;1727383;82;20889;-68
2022/04/04 02:26:34;;;;;;;12.23;6.05;;;;;;;-2.56;87.21;98894.48;1735581;82;21094;-67
2022/04/04 02:29:03;;;;;;;10.18;5.78;;;;;;;-2.58;87.02;98887.73;1727361;82;20971;-66
2022/04/04 02:31:31;;;;;;;11.43;6.47;;;;;;;-2.60;87.07;98897.91;1727636;82;20857;-67
2022/04/04 02:33:58;;;;;;;15.48;7.15;;;;;;;-2.62;86.79;98898.16;1722507;82;21089;-67
2022/04/04 02:36:27;;;;;;;13.22;5.97;;;;;;;-2.61;86.89;98905.69;1720655;82;20841;-67
2022/04/04 02:38:54;;;;;;;9.90;5.83;;;;;;;-2.62;87.29;98906.75;1727458;82;21810;-66
2022/04/04 02:41:20;;;;;;;7.90;5.15;;;;;;;-2.63;87.29;98909.16;1733162;82;21558;-67
2022/04/04 02:43:49;;;;;;;10.70;6.03;;;;;;;-2.68;87.15;98904.52;1726107;82;21137;-67
2022/04/04 02:46:15;;;;;;;8.85;5.47;;;;;;;-2.71;87.23;98907.69;1729469;81;20962;-64
2022/04/04 02:48:43;;;;;;;11.48;6.90;;;;;;;-2.75;87.91;98907.89;1740105;81;20975;-65
2022/04/04 02:51:10;;;;;;;9.18;5.62;;;;;;;-2.77;87.69;98909.48;1740698;82;21079;-63
2022/04/04 02:53:38;;;;;;;10.00;5.25;;;;;;;-2.79;87.64;98908.91;1742113;82;21027;-63
2022/04/04 02:58:51;;;;;;;10.95;6.30;;;;;;;-2.84;87.99;98912.05;1741537;82;20884;-63
2022/04/04 03:01:19;;;;;;;10.65;5.25;;;;;;;-2.87;88.14;98910.66;1742259;82;20884;-64
2022/04/04 03:03:46;;;;;;;11.95;5.87;;;;;;;-2.89;88.08;98918.18;1749520;81;21150;-65
2022/04/04 03:06:14;;;;;;;10.63;6.05;;;;;;;-2.89;88.18;98916.02;1745134;81;21046;-63
2022/04/04 03:08:41;;;;;;;9.58;5.25;;;;;;;-2.88;88.55;98921.12;1741149;81;20961;-63
2022/04/04 03:11:08;;;;;;;9.20;5.30;;;;;;;-2.87;88.78;98926.77;1743707;82;20853;-64
2022/04/04 03:13:36;;;;;;;11.57;6.10;;;;;;;-2.86;88.48;98926.25;1744397;81;20991;-64
2022/04/04 03:16:04;;;;;;;9.30;5.62;;;;;;;-2.87;88.12;98929.99;1739924;82;21219;-64
2022/04/04 03:18:34;;;;;;;8.23;5.08;;;;;;;-2.87;88.35;98930.80;1740914;82;21003;-64
2022/04/04 03:21:01;;;;;;;12.40;5.90;;;;;;;-2.87;88.27;98931.34;1740604;82;21012;-64
2022/04/04 03:23:28;;;;;;;9.60;6.22;;;;;;;-2.87;88.03;98934.84;1745829;81;21434;-64
2022/04/04 03:25:56;;;;;;;9.48;5.00;;;;;;;-2.85;88.17;98943.99;1743631;82;21460;-65
2022/04/04 03:28:25;;;;;;;11.10;6.15;;;;;;;-2.85;88.46;98942.65;1741499;81;21212;-65
2022/04/04 03:30:53;;;;;;;9.60;5.35;;;;;;;-2.86;88.62;98946.39;1740963;81;21090;-64
2022/04/04 03:33:21;;;;;;;13.15;6.10;;;;;;;-2.86;88.32;98947.73;1734270;81;20987;-63
2022/04/04 03:35:48;;;;;;;13.70;5.92;;;;;;;-2.86;88.15;98938.33;1728064;81;20969;-63
2022/04/04 03:38:16;;;;;;;12.75;6.42;;;;;;;-2.86;88.01;98955.80;1750000;81;20991;-64
2022/04/04 03:40:44;;;;;;;8.68;5.62;;;;;;;-2.86;89.05;98963.33;1744488;80;21145;-63
2022/04/04 03:43:11;;;;;;;11.18;5.35;;;;;;;-2.85;88.46;98960.92;1731995;81;21478;-64
2022/04/04 03:45:40;;;;;;;12.70;6.62;;;;;;;-2.87;88.01;98960.88;1723979;81;20944;-63
2022/04/04 03:48:08;;;;;;;14.78;6.45;;;;;;;-2.88;88.01;98966.78;1741088;80;20905;-64
2022/04/04 03:50:35;;;;;;;14.33;6.12;;;;;;;-2.88;88.64;98974.84;1729872;81;20983;-63
2022/04/04 03:53:03;;;;;;;15.18;6.00;;;;;;;-2.89;88.14;98971.08;1730345;82;21294;-63
2022/04/04 03:55:36;;;;;;;10.72;5.80;;;;;;;-2.92;88.22;98979.09;1727767;81;20919;-64
2022/04/04 03:58:03;;;;;;;11.20;5.65;;;;;;;-2.94;88.26;98979.87;1725791;82;20938;-66
2022/04/04 04:00:30;;;;;;;12.58;6.12;;;;;;;-2.96;88.60;98981.98;1733099;82;20962;-64
2022/04/04 04:02:57;;;;;;;11.75;6.80;;;;;;;-2.96;88.50;98987.34;1725979;82;21035;-63
2022/04/04 04:05:25;;;;;;;13.55;5.92;;;;;;;-2.97;88.41;98973.63;1735887;81;21286;-63
2022/04/04 04:07:52;;;;;;;12.75;6.25;;;;;;;-2.95;88.36;98981.45;1745782;81;20872;-64
2022/04/04 04:10:20;;;;;;;9.40;5.67;;;;;;;-2.94;88.88;98985.23;1742163;82;20848;-64
2022/04/04 04:12:47;;;;;;;10.13;5.40;;;;;;;-2.93;88.55;98990.08;1744083;81;20952;-64
2022/04/04 04:15:19;;;;;;;9.45;5.53;;;;;;;-2.92;88.37;98983.66;1748361;81;21097;-63
2022/04/04 04:17:49;;;;;;;16.20;6.42;;;;;;;-2.90;88.38;98986.38;1740032;82;21491;-63
2022/04/04 04:20:35;;;;;;;11.43;6.35;;;;;;;-2.88;88.50;98991.48;1745174;81;21015;-63
2022/04/04 04:23:05;;;;;;;9.53;5.72;;;;;;;-2.86;88.65;98988.84;1749134;81;21486;-63
2022/04/04 04:25:33;;;;;;;11.40;6.30;;;;;;;-2.82;88.52;98995.36;1739761;82;20996;-64
2022/04/04 04:28:01;;;;;;;13.25;6.58;;;;;;;-2.78;88.11;98999.72;1743341;81;20911;-64
2022/04/04 04:30:29;;;;;;;13.88;5.97;;;;;;;-2.75;87.78;99008.11;1749555;82;21827;-63
2022/04/04 04:32:57;;;;;;;12.13;6.22;;;;;;;-2.70;88.12;99006.05;1747815;81;20876;-63
2022/04/04 04:35:25;;;;;;;11.45;5.60;;;;;;;-2.65;87.36;99011.50;1746902;82;20974;-63
2022/04/04 04:37:52;;;;;;;10.35;6.25;;;;;;;-2.63;87.60;99006.70;1739779;82;20979;-62
2022/04/04 04:40:19;;;;;;;11.88;6.65;;;;;;;-2.58;87.44;99011.34;1740878;81;20880;-62
2022/04/04 04:42:50;;;;;;;10.98;5.72;;;;;;;-2.53;87.15;99014.12;1749088;82;21152;-63
2022/04/04 04:45:17;;;;;;;9.33;5.05;;;;;;;-2.50;86.73;99019.01;1749450;82;20971;-63
2022/04/04 04:47:44;;;;;;;13.20;5.67;;;;;;;-2.48;85.98;99019.05;1748480;82;20992;-63
2022/04/04 04:50:14;;;;;;;14.40;6.33;;;;;;;-2.44;86.09;99027.45;1747571;81;20887;-63
2022/04/04 04:52:42;;;;;;;11.20;5.40;;;;;;;-2.40;86.07;99030.75;1743010;81;20999;-63
2022/04/04 04:55:10;;;;;;;12.53;6.28;;;;;;;-2.36;85.28;99037.80;1744603;82;21220;-64
2022/04/04 04:57:38;;;;;;;12.95;5.83;;;;;;;-2.31;85.39;99046.47;1745945;81;21463;-63
2022/04/04 05:00:07;;;;;;;11.60;5.15;;;;;;;-2.25;85.66;99044.12;1735750;82;21003;-63
2022/04/04 05:02:35;;;;;;;10.78;5.53;;;;;;;-2.20;84.97;99045.02;1745017;82;21035;-63
2022/04/04 05:05:04;;;;;;;15.25;4.78;;;;;;;-2.17;84.17;99046.41;1742804;82;20912;-64
2022/04/04 05:07:32;;;;;;;10.35;5.90;;;;;;;-2.14;83.47;99052.64;1749443;81;21451;-64
2022/04/04 05:09:59;;;;;;;10.78;5.58;;;;;;;-2.12;83.23;99057.24;1748705;82;21022;-63
2022/04/04 05:12:26;;;;;;;9.60;5.62;;;;;;;-2.06;83.98;99057.08;1745854;81;20955;-63
2022/04/04 05:14:53;;;;;;;8.65;4.87;;;;;;;-2.00;83.53;99062.00;1735105;82;20921;-64
2022/04/04 05:17:22;;;;;;;8.68;5.40;;;;;;;-1.94;83.77;99061.02;1743822;82;20967;-64
2022/04/04 05:19:49;;;;;;;10.32;5.37;;;;;;;-1.85;84.06;99066.80;1749158;81;21236;-64
2022/04/04 05:22:16;;;;;;;7.35;4.47;;;;;;;-1.75;82.81;99066.95;1748084;81;20841;-64
2022/04/04 05:24:43;;;;;;;10.10;5.15;;;;;;;-1.71;82.11;99068.88;1749584;81;20943;-63
2022/04/04 05:27:10;;;;;;;13.30;5.15;;;;;;;-1.67;81.91;99067.31;1748861;81;20975;-63
2022/04/04 05:29:38;;;;;;;10.05;5.22;;;;;;;-1.61;81.83;99066.86;1740831;82;21019;-63
2022/04/04 05:32:06;;;;;;;12.30;5.90;;;;;;;-1.53;81.05;99080.42;1736842;82;21326;-63
2022/04/04 05:34:32;;;;;;;13.05;6.47;;;;;;;-1.47;81.13;99072.70;1745243;81;21022;-63
2022/04/04 05:36:59;;;;;;;14.23;6.22;;;;;;;-1.40;81.24;99076.03;1746046;81;20904;-64
2022/04/04 05:39:26;;;;;;;16.60;6.65;;;;;;;-1.32;80.86;99078.82;1740063;82;21016;-64
2022/04/04 05:41:55;;;;;;;16.30;6.62;;;;;;;-1.26;80.52;99082.67;1741243;82;20940;-64
2022/04/04 05:44:22;;;;;;;13.40;5.85;;;;;;;-1.20;79.61;99083.02;1741787;82;21139;-73
2022/04/04 05:46:49;;;;;;;13.25;5.53;;;;;;;-1.14;79.15;99086.56;1744190;82;21514;-65
2022/04/04 05:49:16;;;;;;;16.75;5.42;;;;;;;-1.11;78.04;99094.96;1744920;81;20895;-65
2022/04/04 05:51:43;;;;;;;10.13;5.25;;;;;;;-1.08;78.55;99086.91;1745078;81;20963;-65
2022/04/04 05:54:10;;;;;;;12.40;6.17;;;;;;;-1.01;78.80;99094.27;1739939;81;21388;-65
2022/04/04 05:56:39;;;;;;;15.55;6.50;;;;;;;-0.95;77.99;99087.06;1751331;81;20951;-65
2022/04/04 05:59:06;;;;;;;9.93;5.40;;;;;;;-0.89;78.60;99089.56;1739840;81;21035;-65
2022/04/04 06:01:34;;;;;;;13.30;6.47;;;;;;;-0.81;77.50;99091.81;1735130;80;20976;-65
2022/04/04 06:04:02;;;;;;;10.88;5.10;;;;;;;-0.75;77.65;99095.38;1725990;81;21025;-64
2022/04/04 06:06:33;;;;;;;14.78;5.40;;;;;;;-0.63;77.68;99097.94;1745145;82;21431;-65
2022/04/04 06:09:01;;;;;;;10.75;5.00;;;;;;;-0.55;76.51;99098.27;1730828;81;21486;-65
2022/04/04 06:11:29;;;;;;;11.48;5.60;;;;;;;-0.49;75.28;99093.74;1713643;81;20917;-65
2022/04/04 06:13:58;;;;;;;8.50;4.30;;;;;;;-0.46;75.48;99105.37;1741504;82;20936;-66
2022/04/04 06:16:25;;;;;;;9.55;4.28;;;;;;;-0.43;74.34;99111.06;1737043;82;21055;-66
2022/04/04 06:18:54;;;;;;;7.50;4.42;;;;;;;-0.41;74.37;99108.93;1730079;81;20979;-65
2022/04/04 06:21:22;;;;;;;7.62;4.70;;;;;;;-0.39;73.48;99106.80;1742203;82;21024;-67
2022/04/04 06:23:49;;;;;;;11.40;5.78;;;;;;;-0.35;74.43;99107.09;1744830;82;20951;-65
2022/04/04 06:26:16;;;;;;;9.18;4.87;;;;;;;-0.25;75.67;99113.12;1743442;81;21089;-69
2022/04/04 06:28:43;;;;;;;10.40;4.83;;;;;;;-0.11;73.70;99110.29;1749332;82;21010;-70
2022/04/04 06:31:10;;;;;;;9.15;4.90;;;;;;;-0.04;72.51;99114.94;1747627;81;20919;-69
2022/04/04 06:33:42;;;;;;;9.15;5.05;;;;;;;-0.01;72.22;99109.84;1737578;81;21157;-68
2022/04/04 06:36:15;;;;;;;8.85;5.20;;;;;;;0.02;72.72;99111.72;1690556;83;21001;-67
2022/04/04 06:38:46;;;;;;;7.97;4.33;;;;;;;0.10;73.86;99112.59;1686781;83;21513;-66
2022/04/04 06:41:18;;;;;;;7.62;4.42;;;;;;;0.22;72.55;99119.45;1704024;83;21553;-65
2022/04/04 06:43:45;;;;;;;13.05;5.10;;;;;;;0.36;71.86;99126.56;1695725;83;20955;-64
2022/04/04 06:46:13;;;;;;;8.63;4.72;;;;;;;0.44;72.48;99132.84;1739375;81;21827;-66
2022/04/04 06:48:42;;;;;;;9.53;4.78;;;;;;;0.55;70.58;99129.13;1750512;81;21555;-65
2022/04/04 06:51:18;;;;;;;7.95;4.72;;;;;;;0.65;69.64;99127.81;1739851;82;21006;-62
2022/04/04 06:53:47;;;;;;;8.15;4.55;;;;;;;0.69;69.16;99134.86;1740399;82;20904;-69
2022/04/04 06:56:17;;;;;;;7.78;4.20;;;;;;;0.79;70.41;99131.41;1742410;81;21035;-67
2022/04/04 06:58:44;;;;;;;12.10;4.65;;;;;;;0.95;70.12;99133.93;1740333;82;21833;-66
2022/04/04 07:01:17;;;;;;;8.18;4.58;;;;;;;1.06;68.19;99118.58;1747768;81;20932;-66
2022/04/04 07:03:50;;;;;;;9.53;4.60;;;;;;;1.10;67.61;99141.30;1739558;81;21574;-65
2022/04/04 07:06:23;;;;;;;6.78;4.00;;;;;;;1.15;66.60;99133.21;1742409;81;20983;-63
2022/04/04 07:08:57;;;;;;;12.37;4.58;;;;;;;1.23;65.25;99131.86;1739812;82;21074;-62
2022/04/04 07:11:30;;;;;;;5.60;3.90;;;;;;;1.29;64.52;99144.33;1743009;81;21234;-62
2022/04/04 07:14:00;;;;;;;8.85;4.17;;;;;;;1.36;62.74;99148.95;1671731;85;21043;-66
2022/04/04 07:16:34;;;;;;;7.30;4.17;;;;;;;1.46;63.74;99142.22;1730153;82;20991;-66
2022/04/04 07:19:09;;;;;;;7.28;3.87;;;;;;;1.58;61.28;99142.80;1706312;82;20967;-67
2022/04/04 07:21:38;;;;;;;8.18;3.65;;;;;;;1.72;62.23;99149.88;1689118;82;21423;-64
2022/04/04 07:24:07;;;;;;;4.08;3.00;;;;;;;1.84;61.27;99143.64;1718905;82;21825;-65
2022/04/04 07:26:37;;;;;;;13.32;3.92;;;;;;;1.94;59.47;99145.55;1724889;82;21007;-65
2022/04/04 07:29:08;;;;;;;6.10;3.62;;;;;;;2.09;62.26;99142.05;1715248;81;22265;-64
2022/04/04 07:31:36;;;;;;;7.37;3.62;;;;;;;2.48;63.61;99146.36;1724508;81;21120;-68
2022/04/04 07:34:04;;;;;;;11.80;4.05;;;;;;;3.04;58.49;99150.29;1725491;81;21478;-72
2022/04/04 07:36:31;;;;;;;7.50;4.50;;;;;;;3.46;56.92;99147.97;1727671;82;21054;-71
2022/04/04 07:39:07;;;;;;;7.72;3.52;;;;;;;4.18;54.51;99152.37;1743699;80;21494;-71
2022/04/04 07:41:32;;;;;;;7.45;3.67;;;;;;;4.18;54.51;99152.37;1733104;82;20948;-68
2022/04/04 07:44:06;;;;;;;4.83;3.02;;;;;;;4.73;53.32;99159.77;1717706;82;21014;-68
2022/04/04 07:46:38;;;;;;;10.00;4.40;;;;;;;4.73;53.32;99159.77;1743884;81;21141;-68
2022/04/04 07:49:07;;;;;;;9.03;4.28;;;;;;;5.15;51.90;99169.94;1743430;81;21109;-67
2022/04/04 07:51:36;;;;;;;4.70;3.20;;;;;;;5.36;49.86;99165.05;1686688;83;21077;-66
2022/04/04 07:54:11;;;;;;;6.65;2.90;;;;;;;5.29;47.74;99158.05;1684953;84;21555;-66
2022/04/04 07:56:40;;;;;;;3.87;2.75;;;;;;;5.26;43.72;99157.81;1744946;81;21526;-66
2022/04/04 07:59:10;;;;;;;6.67;2.67;;;;;;;5.30;43.91;99173.83;1742865;81;20992;-71
2022/04/04 08:01:40;;;;;;;6.37;3.33;;;;;;;5.31;43.06;99155.84;1742339;81;21265;-66
2022/04/04 08:04:09;;;;;;;5.15;3.02;;;;;;;5.25;43.45;99160.27;1745218;81;21597;-69
2022/04/04 08:06:36;;;;;;;5.12;2.85;;;;;;;5.05;43.96;99177.66;1741505;82;21365;-69
2022/04/04 08:09:03;;;;;;;3.30;2.60;;;;;;;4.75;45.36;99168.44;1741507;81;21117;-67
2022/04/04 08:11:31;;;;;;;5.92;2.95;;;;;;;4.70;45.66;99164.41;1738893;82;20936;-69
2022/04/04 08:14:03;;;;;;;4.97;3.20;;;;;;;4.75;40.52;99171.16;1738388;82;20837;-69
2022/04/04 08:16:31;;;;;;;5.78;3.42;;;;;;;4.90;43.66;99161.50;1737689;81;21026;-70
2022/04/04 08:19:00;;;;;;;9.18;2.92;;;;;;;5.23;42.17;99162.47;1741400;81;20880;-73
2022/04/04 08:21:34;;;;;;;6.40;3.42;;;;;;;5.51;41.72;99171.67;1746899;81;21011;-71
2022/04/04 08:24:03;;;;;;;5.35;3.52;;;;;;;5.70;42.12;99169.79;1748701;82;20986;-68
2022/04/04 08:26:34;;;;;;;6.70;3.72;;;;;;;5.94;41.21;99162.37;1745998;81;21097;-69
2022/04/04 08:29:04;;;;;;;4.67;2.90;;;;;;;6.06;41.48;99174.75;1710167;81;21009;-75
2022/04/04 08:31:34;;;;;;;4.53;3.08;;;;;;;5.94;36.78;99176.00;1674653;83;20942;-73
2022/04/04 08:34:07;;;;;;;4.55;2.92;;;;;;;5.87;38.09;99174.16;1721110;80;21553;-72
2022/04/04 08:36:34;;;;;;;9.00;2.95;;;;;;;5.69;38.43;99182.34;1715038;82;21035;-67
2022/04/04 08:39:06;;;;;;;4.92;2.40;;;;;;;5.56;38.60;99178.41;1741590;82;21198;-71
2022/04/04 08:41:32;;;;;;;3.22;2.22;;;;;;;5.34;37.28;99165.89;1723306;81;21075;-66
2022/04/04 08:44:04;;;;;;;5.20;2.58;;;;;;;5.01;37.99;99177.98;1747708;81;20912;-68
2022/04/04 08:46:34;;;;;;;3.72;2.10;;;;;;;4.91;38.39;99168.01;1745062;81;21054;-70
2022/04/04 08:49:09;;;;;;;5.15;2.42;;;;;;;5.16;38.46;99169.66;1718245;82;20999;-66
2022/04/04 08:51:42;;;;;;;6.60;2.22;;;;;;;5.29;39.70;99159.41;1748917;81;22245;-68
2022/04/04 08:54:09;;;;;;;9.88;2.50;;;;;;;5.34;37.97;99167.25;1744206;81;20944;-69
2022/04/04 08:56:36;;;;;;;4.15;2.10;;;;;;;5.23;37.99;99163.28;1738908;82;20932;-69
2022/04/04 08:59:04;;;;;;;8.70;4.30;;;;;;;5.04;38.93;99165.16;1739511;82;20983;-70
2022/04/04 09:01:31;;;;;;;9.25;4.37;;;;;;;4.95;38.30;99166.88;1741507;82;20907;-73
2022/04/04 09:04:06;;;;;;;3.30;2.08;;;;;;;5.24;37.82;99156.74;1743758;81;21250;-72
2022/04/04 09:06:50;;;;;;;9.75;3.85;;;;;;;5.80;38.09;99153.83;1736314;82;20987;-71
2022/04/04 09:09:26;;;;;;;5.72;3.52;;;;;;;6.46;39.49;99159.10;1740441;81;20873;-70
2022/04/04 09:12:07;;;;;;;4.85;2.80;;;;;;;7.13;36.79;99163.63;1736917;81;20936;-71
2022/04/04 09:14:43;;;;;;;10.38;5.35;;;;;;;7.44;37.22;99159.73;1739566;81;21089;-70
2022/04/04 09:17:11;;;;;;;5.65;4.10;;;;;;;7.62;37.61;99160.70;1734979;82;21212;-72
2022/04/04 09:19:38;;;;;;;7.22;2.90;;;;;;;7.79;35.46;99160.89;1738680;81;20997;-72
2022/04/04 09:22:10;;;;;;;5.50;3.08;;;;;;;7.74;35.88;99155.53;1753091;81;21027;-68
2022/04/04 09:24:48;;;;;;;5.72;3.25;;;;;;;7.68;37.58;99161.41;1746567;81;20983;-70
2022/04/04 09:27:32;;;;;;;7.78;3.98;;;;;;;7.65;37.41;99157.37;1739095;81;20978;-69
2022/04/04 09:30:06;;;;;;;6.25;3.67;;;;;;;7.74;38.28;99151.44;1739326;81;21281;-73
2022/04/04 09:32:41;;;;;;;9.38;4.33;;;;;;;7.71;36.93;99156.14;1724235;82;20858;-72
2022/04/04 09:35:13;;;;;;;10.28;3.52;;;;;;;7.40;36.76;99163.38;1728450;81;21498;-66
2022/04/04 09:37:48;;;;;;;4.95;2.87;;;;;;;6.90;37.41;99164.08;1706285;82;20876;-67
2022/04/04 09:40:24;;;;;;;7.60;4.28;;;;;;;6.86;36.03;99156.79;1734461;81;21000;-68
2022/04/04 09:42:57;;;;;;;10.98;5.37;;;;;;;6.61;35.54;99165.67;1737220;81;21118;-70
2022/04/04 09:45:28;;;;;;;4.65;2.87;;;;;;;6.34;36.14;99151.97;1735487;82;21502;-69
2022/04/04 09:48:08;;;;;;;5.33;2.50;;;;;;;6.47;36.67;99156.63;1720883;82;20983;-66
2022/04/04 09:50:50;;;;;;;7.12;2.47;;;;;;;6.83;37.74;99148.65;1735864;82;21114;-66
2022/04/04 09:53:22;;;;;;;4.15;2.47;;;;;;;7.37;36.06;99153.06;1722117;82;20940;-73
2022/04/04 09:55:56;;;;;;;3.70;2.50;;;;;;;7.56;34.78;99146.91;1676289;84;22135;-73
2022/04/04 09:58:27;;;;;;;4.97;2.65;;;;;;;7.87;35.95;99141.03;1671474;85;21022;-72
2022/04/04 10:00:55;;;;;;;9.25;2.90;;;;;;;8.47;35.66;99137.98;1674480;85;20975;-76
2022/04/04 10:03:28;;;;;;;3.33;2.35;;;;;;;8.58;34.95;99137.17;1684818;85;20966;-76
2022/04/04 10:06:06;;;;;;;5.70;2.92;;;;;;;8.27;34.68;99146.66;1680766;85;21046;-72
2022/04/04 10:08:35;;;;;;;5.47;2.90;;;;;;;7.67;36.02;99153.77;1675817;85;21163;-68
2022/04/04 10:11:10;;;;;;;6.33;3.05;;;;;;;7.13;35.20;99148.61;1680977;85;20982;-71
2022/04/04 10:13:44;;;;;;;5.97;2.72;;;;;;;6.65;34.71;99156.34;1650575;85;21069;-72
2022/04/04 10:16:13;;;;;;;;;;;;;;;6.46;37.12;99151.48;1681558;84;20927;-71
2022/04/04 10:18:46;;;;;;;6.05;3.00;;;;;;;6.54;36.66;99147.52;1719552;83;20156;-71
2022/04/04 10:21:15;;;;;;;7.65;3.22;;;;;;;6.47;37.65;99148.45;1684002;84;21517;-73
2022/04/04 10:23:46;;;;;;;7.30;2.90;;;;;;;6.56;38.63;99149.95;1671728;85;21509;-74
2022/04/04 10:26:14;;;;;;;5.97;3.15;;;;;;;6.69;36.59;99148.36;1674299;84;21688;-68
2022/04/04 10:28:46;;;;;;;6.40;3.10;;;;;;;6.57;36.21;99132.47;1725801;81;20956;-70
2022/04/04 10:31:21;;;;;;;6.55;3.15;;;;;;;6.41;37.93;99137.38;1679273;82;21091;-69
2022/04/04 10:33:52;;;;;;;8.05;3.55;;;;;;;6.16;37.62;99146.80;1731831;82;21275;-68
2022/04/04 10:36:23;;;;;;;10.10;4.15;;;;;;;5.96;37.60;99139.73;1709888;82;20980;-69
2022/04/04 10:38:56;;;;;;;10.95;5.58;;;;;;;6.28;40.08;99139.53;1713357;82;21076;-69
2022/04/04 10:41:30;;;;;;;6.50;3.58;;;;;;;6.97;37.27;99137.73;1726765;81;20984;-69
2022/04/04 10:43:57;;;;;;;7.28;3.00;;;;;;;7.62;36.18;99127.38;1723207;82;21577;-71
2022/04/04 10:46:28;;;;;;;6.40;3.72;;;;;;;8.12;33.44;99137.44;1717637;82;21220;-72
2022/04/04 10:48:59;;;;;;;6.22;2.90;;;;;;;8.35;34.29;99131.46;1738421;81;21061;-72
2022/04/04 10:51:31;;;;;;;10.63;4.40;;;;;;;8.55;35.10;99139.17;1720604;81;20956;-68
2022/04/04 10:54:10;;;;;;;6.40;3.90;;;;;;;8.74;34.71;99129.36;1747303;82;20974;-69
2022/04/04 10:56:47;;;;;;;6.05;2.50;;;;;;;8.81;32.11;99148.88;1744839;81;20963;-67
2022/04/04 10:59:24;;;;;;;5.05;2.50;;;;;;;8.45;31.32;99144.33;1738468;81;21268;-73
2022/04/04 11:01:58;;;;;;;4.90;3.00;;;;;;;8.01;32.70;99134.17;1750364;81;21651;-81
2022/04/04 11:04:36;;;;;;;6.60;3.60;;;;;;;7.54;33.50;99135.47;1742117;82;21014;-73
2022/04/04 11:10:06;;;;;;;8.55;3.42;;;;;;;7.56;37.56;99138.71;1729202;81;20941;-75
2022/04/04 11:13:00;;;;;;;10.38;3.80;;;;;;;7.81;37.45;99123.70;1738499;80;21552;-71
2022/04/04 11:15:48;;;;;;;11.40;3.08;;;;;;;8.10;35.15;99143.78;1742060;80;20956;-70
2022/04/04 11:18:19;;;;;;;9.63;4.85;;;;;;;7.97;33.16;99138.63;1699462;83;21564;-65
2022/04/04 11:20:59;;;;;;;10.20;4.45;;;;;;;7.48;33.54;99136.73;1686692;83;21546;-68
2022/04/04 11:23:27;;;;;;;6.65;3.10;;;;;;;7.06;34.27;99129.09;1702884;83;21012;-68
2022/04/04 11:25:59;;;;;;;9.55;3.58;;;;;;;7.02;34.79;99128.08;1703717;83;22177;-68
2022/04/04 11:28:35;;;;;;;4.90;3.00;;;;;;;7.12;34.48;99129.80;1709697;83;21519;-68
2022/04/04 11:31:09;;;;;;;8.90;3.52;;;;;;;7.00;34.35;99129.49;1652908;85;21106;-65
2022/04/04 11:33:54;;;;;;;8.38;3.47;;;;;;;6.68;34.09;99123.56;1676449;84;20982;-67
2022/04/04 11:39:03;;;;;;;5.60;3.67;;;;;;;6.35;37.16;99126.33;1665807;82;22068;-67
2022/04/04 11:41:46;;;;;;;10.43;4.90;;;;;;;6.27;36.52;99140.63;1698078;83;21076;-66
2022/04/04 11:44:08;;;;;;;13.70;4.92;;;;;;;6.21;36.66;99128.19;1720563;82;21067;-76
2022/04/04 11:46:39;;;;;;;10.18;5.08;;;;;;;6.19;37.36;99126.31;1739303;80;20972;-76
2022/04/04 11:49:11;;;;;;;8.18;3.98;;;;;;;6.27;37.16;99112.82;1739009;80;20982;-73
2022/04/04 11:51:44;;;;;;;7.53;3.00;;;;;;;6.41;38.00;99122.94;1736196;81;20908;-68
2022/04/04 11:54:19;;;;;;;4.47;3.10;;;;;;;6.66;35.52;99115.68;1722971;82;20968;-69